sensor_id;sensor_type;location;lat;lon;timestamp;pressure;altitude;pressure_sealevel;temperature;humidity
45040;BME280;30778;53.574;7.770;2023-07-13T00:02:00;101172.03;;;13.87;48.74
45040;BME280;30778;53.574;7.770;2023-07-13T00:04:26;101163.97;;;13.73;48.96
45040;BME280;30778;53.574;7.770;2023-07-13T00:06:52;101158.28;;;13.82;48.59
45040;BME280;30778;53.574;7.770;2023-07-13T00:09:19;101159.50;;;13.75;49.13
45040;BME280;30778;53.574;7.770;2023-07-13T00:11:45;101168.16;;;13.77;48.78
45040;BME280;30778;53.574;7.770;2023-07-13T00:14:13;101173.22;;;13.63;49.39
45040;BME280;30778;53.574;7.770;2023-07-13T00:16:39;101170.59;;;13.63;49.14
45040;BME280;30778;53.574;7.770;2023-07-13T00:19:10;101174.56;;;13.52;49.32
45040;BME280;30778;53.574;7.770;2023-07-13T00:21:35;101172.16;;;13.67;49.03
45040;BME280;30778;53.574;7.770;2023-07-13T00:24:01;101167.69;;;13.69;48.88
45040;BME280;30778;53.574;7.770;2023-07-13T00:26:27;101164.66;;;13.59;49.11
45040;BME280;30778;53.574;7.770;2023-07-13T00:28:52;101152.84;;;13.68;48.76
45040;BME280;30778;53.574;7.770;2023-07-13T00:31:18;101154.47;;;13.70;48.81
45040;BME280;30778;53.574;7.770;2023-07-13T00:33:46;101155.31;;;13.71;49.13
45040;BME280;30778;53.574;7.770;2023-07-13T00:36:13;101162.72;;;13.63;48.74
45040;BME280;30778;53.574;7.770;2023-07-13T00:38:40;101154.53;;;13.69;49.09
45040;BME280;30778;53.574;7.770;2023-07-13T00:41:06;101158.56;;;13.76;48.73
45040;BME280;30778;53.574;7.770;2023-07-13T00:43:32;101155.03;;;13.77;48.69
45040;BME280;30778;53.574;7.770;2023-07-13T00:48:31;101152.09;;;13.66;49.04
45040;BME280;30778;53.574;7.770;2023-07-13T00:50:58;101158.41;;;13.62;49.21
45040;BME280;30778;53.574;7.770;2023-07-13T00:53:26;101150.28;;;13.66;49.05
45040;BME280;30778;53.574;7.770;2023-07-13T00:55:53;101153.88;;;13.65;49.07
45040;BME280;30778;53.574;7.770;2023-07-13T00:58:21;101161.81;;;13.64;49.15
45040;BME280;30778;53.574;7.770;2023-07-13T01:00:48;101145.69;;;13.52;49.28
45040;BME280;30778;53.574;7.770;2023-07-13T01:03:15;101150.00;;;13.53;49.21
45040;BME280;30778;53.574;7.770;2023-07-13T01:05:40;101156.13;;;13.54;49.47
45040;BME280;30778;53.574;7.770;2023-07-13T01:08:06;101155.00;;;13.41;49.95
45040;BME280;30778;53.574;7.770;2023-07-13T01:10:33;101157.25;;;13.48;49.57
45040;BME280;30778;53.574;7.770;2023-07-13T01:13:06;101164.56;;;13.42;49.54
45040;BME280;30778;53.574;7.770;2023-07-13T01:15:53;101169.47;;;13.30;49.87
45040;BME280;30778;53.574;7.770;2023-07-13T01:18:25;101167.47;;;12.98;50.87
45040;BME280;30778;53.574;7.770;2023-07-13T01:20:56;101165.72;;;13.36;49.90
45040;BME280;30778;53.574;7.770;2023-07-13T01:23:23;101166.84;;;13.30;50.21
45040;BME280;30778;53.574;7.770;2023-07-13T01:25:50;101165.72;;;13.36;49.82
45040;BME280;30778;53.574;7.770;2023-07-13T01:28:17;101163.78;;;13.40;50.04
45040;BME280;30778;53.574;7.770;2023-07-13T01:30:43;101166.06;;;13.28;49.88
45040;BME280;30778;53.574;7.770;2023-07-13T01:33:12;101166.91;;;13.29;50.06
45040;BME280;30778;53.574;7.770;2023-07-13T01:35:38;101162.38;;;13.32;50.07
45040;BME280;30778;53.574;7.770;2023-07-13T01:38:04;101157.84;;;13.36;49.78
45040;BME280;30778;53.574;7.770;2023-07-13T01:40:30;101165.00;;;13.32;49.52
45040;BME280;30778;53.574;7.770;2023-07-13T01:42:57;101159.47;;;13.20;49.99
45040;BME280;30778;53.574;7.770;2023-07-13T01:45:23;101163.66;;;13.24;50.43
45040;BME280;30778;53.574;7.770;2023-07-13T01:47:48;101170.19;;;13.15;50.37
45040;BME280;30778;53.574;7.770;2023-07-13T01:50:14;101170.97;;;13.17;50.46
45040;BME280;30778;53.574;7.770;2023-07-13T01:52:40;101172.31;;;13.26;50.46
45040;BME280;30778;53.574;7.770;2023-07-13T01:55:08;101166.91;;;13.29;50.40
45040;BME280;30778;53.574;7.770;2023-07-13T01:57:34;101174.84;;;13.46;49.43
45040;BME280;30778;53.574;7.770;2023-07-13T02:00:00;101172.59;;;13.58;49.66
45040;BME280;30778;53.574;7.770;2023-07-13T02:02:26;101176.06;;;13.20;50.62
45040;BME280;30778;53.574;7.770;2023-07-13T02:04:51;101160.97;;;13.25;49.99
45040;BME280;30778;53.574;7.770;2023-07-13T02:07:17;101161.94;;;13.42;49.92
45040;BME280;30778;53.574;7.770;2023-07-13T02:09:43;101162.78;;;13.42;49.74
45040;BME280;30778;53.574;7.770;2023-07-13T02:12:08;101159.50;;;13.56;49.57
45040;BME280;30778;53.574;7.770;2023-07-13T02:14:34;101159.34;;;13.61;49.41
45040;BME280;30778;53.574;7.770;2023-07-13T02:17:00;101172.16;;;13.67;49.40
45040;BME280;30778;53.574;7.770;2023-07-13T02:19:25;101173.78;;;13.50;49.37
45040;BME280;30778;53.574;7.770;2023-07-13T02:21:51;101174.31;;;13.59;49.61
45040;BME280;30778;53.574;7.770;2023-07-13T02:24:16;101179.03;;;13.50;50.06
45040;BME280;30778;53.574;7.770;2023-07-13T02:26:44;101175.84;;;13.44;50.54
45040;BME280;30778;53.574;7.770;2023-07-13T02:29:10;101181.59;;;13.33;50.71
45040;BME280;30778;53.574;7.770;2023-07-13T02:31:36;101174.72;;;13.11;51.43
45040;BME280;30778;53.574;7.770;2023-07-13T02:34:02;101172.66;;;12.99;51.87
45040;BME280;30778;53.574;7.770;2023-07-13T02:36:28;101171.13;;;13.14;51.40
45040;BME280;30778;53.574;7.770;2023-07-13T02:38:53;101161.88;;;13.43;51.16
45040;BME280;30778;53.574;7.770;2023-07-13T02:41:19;101164.28;;;13.29;51.82
45040;BME280;30778;53.574;7.770;2023-07-13T02:43:45;101172.94;;;12.54;53.89
45040;BME280;30778;53.574;7.770;2023-07-13T02:46:10;101176.13;;;13.00;52.97
45040;BME280;30778;53.574;7.770;2023-07-13T02:48:37;101172.47;;;13.04;52.36
45040;BME280;30778;53.574;7.770;2023-07-13T02:51:03;101172.31;;;13.26;52.07
45040;BME280;30778;53.574;7.770;2023-07-13T02:53:28;101168.19;;;13.39;51.99
45040;BME280;30778;53.574;7.770;2023-07-13T02:55:54;101168.41;;;12.97;53.27
45040;BME280;30778;53.574;7.770;2023-07-13T02:58:19;101181.66;;;13.31;52.36
45040;BME280;30778;53.574;7.770;2023-07-13T03:00:46;101172.16;;;13.48;51.98
45040;BME280;30778;53.574;7.770;2023-07-13T03:03:13;101177.03;;;13.56;51.91
45040;BME280;30778;53.574;7.770;2023-07-13T03:05:42;101179.31;;;13.44;52.11
45040;BME280;30778;53.574;7.770;2023-07-13T03:08:09;101177.97;;;13.55;52.30
45040;BME280;30778;53.574;7.770;2023-07-13T03:10:35;101180.81;;;13.50;52.62
45040;BME280;30778;53.574;7.770;2023-07-13T03:13:01;101184.25;;;13.14;53.75
45040;BME280;30778;53.574;7.770;2023-07-13T03:15:27;101171.09;;;12.95;53.92
45040;BME280;30778;53.574;7.770;2023-07-13T03:17:57;101178.91;;;13.35;52.86
45040;BME280;30778;53.574;7.770;2023-07-13T03:20:22;101175.56;;;13.50;52.76
45040;BME280;30778;53.574;7.770;2023-07-13T03:22:48;101176.44;;;13.13;53.84
45040;BME280;30778;53.574;7.770;2023-07-13T03:25:15;101175.41;;;13.53;52.75
45040;BME280;30778;53.574;7.770;2023-07-13T03:27:41;101174.28;;;13.40;53.34
45040;BME280;30778;53.574;7.770;2023-07-13T03:30:08;101175.78;;;13.45;53.13
45040;BME280;30778;53.574;7.770;2023-07-13T03:32:34;101175.00;;;13.43;53.13
45040;BME280;30778;53.574;7.770;2023-07-13T03:35:00;101187.66;;;13.16;54.34
45040;BME280;30778;53.574;7.770;2023-07-13T03:37:28;101176.56;;;13.47;53.50
45040;BME280;30778;53.574;7.770;2023-07-13T03:39:54;101183.88;;;13.60;52.79
45040;BME280;30778;53.574;7.770;2023-07-13T03:42:19;101183.59;;;13.66;53.22
45040;BME280;30778;53.574;7.770;2023-07-13T03:44:45;101178.69;;;13.58;53.23
45040;BME280;30778;53.574;7.770;2023-07-13T03:47:17;101183.94;;;13.58;52.91
45040;BME280;30778;53.574;7.770;2023-07-13T03:49:43;101186.50;;;13.79;52.22
45040;BME280;30778;53.574;7.770;2023-07-13T03:52:09;101186.00;;;13.70;52.65
45040;BME280;30778;53.574;7.770;2023-07-13T03:54:34;101185.78;;;13.75;52.71
45040;BME280;30778;53.574;7.770;2023-07-13T03:57:01;101184.31;;;13.87;52.70
45040;BME280;30778;53.574;7.770;2023-07-13T03:59:29;101184.44;;;13.47;53.70
45040;BME280;30778;53.574;7.770;2023-07-13T04:01:54;101186.84;;;13.71;53.18
45040;BME280;30778;53.574;7.770;2023-07-13T04:04:20;101190.78;;;13.43;53.92
45040;BME280;30778;53.574;7.770;2023-07-13T04:06:46;101186.41;;;13.42;53.97
45040;BME280;30778;53.574;7.770;2023-07-13T04:09:11;101187.78;;;13.70;53.36
45040;BME280;30778;53.574;7.770;2023-07-13T04:11:37;101191.94;;;13.55;53.60
45040;BME280;30778;53.574;7.770;2023-07-13T04:14:04;101197.56;;;13.66;53.45
45040;BME280;30778;53.574;7.770;2023-07-13T04:16:30;101198.56;;;13.64;53.57
45040;BME280;30778;53.574;7.770;2023-07-13T04:18:56;101190.28;;;13.90;52.62
45040;BME280;30778;53.574;7.770;2023-07-13T04:21:29;101194.72;;;12.95;55.48
45040;BME280;30778;53.574;7.770;2023-07-13T04:23:55;101204.25;;;13.55;53.81
45040;BME280;30778;53.574;7.770;2023-07-13T04:26:21;101206.50;;;13.81;53.44
45040;BME280;30778;53.574;7.770;2023-07-13T04:28:48;101203.16;;;13.02;55.23
45040;BME280;30778;53.574;7.770;2023-07-13T04:31:14;101209.63;;;13.51;54.23
45040;BME280;30778;53.574;7.770;2023-07-13T04:33:40;101215.31;;;13.42;54.55
45040;BME280;30778;53.574;7.770;2023-07-13T04:36:05;101210.88;;;13.63;53.91
45040;BME280;30778;53.574;7.770;2023-07-13T04:38:32;101225.25;;;13.36;54.88
45040;BME280;30778;53.574;7.770;2023-07-13T04:41:00;101221.50;;;12.83;56.18
45040;BME280;30778;53.574;7.770;2023-07-13T04:43:27;101216.41;;;13.57;54.47
45040;BME280;30778;53.574;7.770;2023-07-13T04:45:53;101217.13;;;13.78;53.98
45040;BME280;30778;53.574;7.770;2023-07-13T04:48:19;101224.97;;;13.42;54.93
45040;BME280;30778;53.574;7.770;2023-07-13T04:50:45;101220.41;;;13.83;53.81
45040;BME280;30778;53.574;7.770;2023-07-13T04:53:11;101223.41;;;13.76;53.67
45040;BME280;30778;53.574;7.770;2023-07-13T04:55:37;101220.44;;;14.01;53.57
45040;BME280;30778;53.574;7.770;2023-07-13T04:58:02;101224.84;;;13.64;54.17
45040;BME280;30778;53.574;7.770;2023-07-13T05:00:29;101220.75;;;13.94;53.38
45040;BME280;30778;53.574;7.770;2023-07-13T05:02:56;101222.06;;;14.21;53.04
45040;BME280;30778;53.574;7.770;2023-07-13T05:05:26;101218.69;;;14.36;52.54
45040;BME280;30778;53.574;7.770;2023-07-13T05:07:52;101220.00;;;14.62;52.55
45040;BME280;30778;53.574;7.770;2023-07-13T05:10:19;101222.75;;;15.43;51.10
45040;BME280;30778;53.574;7.770;2023-07-13T05:12:45;101222.91;;;14.91;51.79
45040;BME280;30778;53.574;7.770;2023-07-13T05:15:11;101234.13;;;15.28;50.44
45040;BME280;30778;53.574;7.770;2023-07-13T05:17:36;101234.81;;;15.47;49.43
45040;BME280;30778;53.574;7.770;2023-07-13T05:20:05;101233.97;;;15.31;50.57
45040;BME280;30778;53.574;7.770;2023-07-13T05:22:31;101233.19;;;15.29;51.50
45040;BME280;30778;53.574;7.770;2023-07-13T05:24:56;101238.56;;;15.43;50.71
45040;BME280;30778;53.574;7.770;2023-07-13T05:27:22;101237.47;;;15.14;51.33
45040;BME280;30778;53.574;7.770;2023-07-13T05:29:49;101230.56;;;15.29;50.86
45040;BME280;30778;53.574;7.770;2023-07-13T05:32:18;101227.97;;;14.43;53.15
45040;BME280;30778;53.574;7.770;2023-07-13T05:37:09;101244.19;;;15.69;50.68
45040;BME280;30778;53.574;7.770;2023-07-13T05:39:35;101241.94;;;18.10;45.21
45040;BME280;30778;53.574;7.770;2023-07-13T05:42:01;101236.59;;;17.14;46.61
45040;BME280;30778;53.574;7.770;2023-07-13T05:44:31;101240.13;;;18.63;43.35
45040;BME280;30778;53.574;7.770;2023-07-13T05:46:56;101241.56;;;17.47;45.96
45040;BME280;30778;53.574;7.770;2023-07-13T05:49:22;101245.78;;;17.64;46.16
45040;BME280;30778;53.574;7.770;2023-07-13T05:51:48;101247.66;;;18.56;43.73
45040;BME280;30778;53.574;7.770;2023-07-13T05:54:14;101247.97;;;18.12;44.14
45040;BME280;30778;53.574;7.770;2023-07-13T05:56:40;101248.16;;;18.36;44.14
45040;BME280;30778;53.574;7.770;2023-07-13T05:59:05;101246.41;;;19.50;41.74
45040;BME280;30778;53.574;7.770;2023-07-13T06:01:31;101252.03;;;18.96;42.57
45040;BME280;30778;53.574;7.770;2023-07-13T06:03:57;101252.94;;;18.56;42.63
45040;BME280;30778;53.574;7.770;2023-07-13T06:06:22;101264.56;;;19.56;40.84
45040;BME280;30778;53.574;7.770;2023-07-13T06:08:48;101255.84;;;18.92;42.30
45040;BME280;30778;53.574;7.770;2023-07-13T06:11:20;101258.97;;;21.13;37.90
45040;BME280;30778;53.574;7.770;2023-07-13T06:13:46;101261.31;;;19.77;40.36
45040;BME280;30778;53.574;7.770;2023-07-13T06:16:13;101261.81;;;18.42;43.70
45040;BME280;30778;53.574;7.770;2023-07-13T06:18:40;101265.25;;;17.90;45.31
45040;BME280;30778;53.574;7.770;2023-07-13T06:21:11;101253.94;;;19.19;42.90
45040;BME280;30778;53.574;7.770;2023-07-13T06:23:37;101256.81;;;18.25;44.67
45040;BME280;30778;53.574;7.770;2023-07-13T06:26:03;101264.28;;;18.71;43.77
45040;BME280;30778;53.574;7.770;2023-07-13T06:28:30;101262.38;;;19.37;42.50
45040;BME280;30778;53.574;7.770;2023-07-13T06:30:57;101259.41;;;19.42;42.70
45040;BME280;30778;53.574;7.770;2023-07-13T06:33:23;101266.31;;;20.87;40.10
45040;BME280;30778;53.574;7.770;2023-07-13T06:35:49;101270.66;;;20.88;39.55
45040;BME280;30778;53.574;7.770;2023-07-13T06:38:14;101276.94;;;21.55;38.59
45040;BME280;30778;53.574;7.770;2023-07-13T06:40:41;101270.06;;;22.49;35.69
45040;BME280;30778;53.574;7.770;2023-07-13T06:43:06;101271.75;;;21.97;36.39
45040;BME280;30778;53.574;7.770;2023-07-13T06:45:41;101274.34;;;21.87;37.74
45040;BME280;30778;53.574;7.770;2023-07-13T06:48:07;101267.91;;;21.01;38.07
45040;BME280;30778;53.574;7.770;2023-07-13T06:50:33;101267.66;;;21.27;37.23
45040;BME280;30778;53.574;7.770;2023-07-13T06:52:59;101262.44;;;23.08;34.87
45040;BME280;30778;53.574;7.770;2023-07-13T06:55:25;101270.41;;;23.89;33.50
45040;BME280;30778;53.574;7.770;2023-07-13T06:57:51;101270.88;;;23.44;33.47
45040;BME280;30778;53.574;7.770;2023-07-13T07:00:17;101274.50;;;22.60;35.57
45040;BME280;30778;53.574;7.770;2023-07-13T07:02:42;101278.06;;;22.28;36.22
45040;BME280;30778;53.574;7.770;2023-07-13T07:05:08;101275.63;;;21.61;39.01
45040;BME280;30778;53.574;7.770;2023-07-13T07:07:34;101276.72;;;21.35;37.38
45040;BME280;30778;53.574;7.770;2023-07-13T07:09:59;101275.47;;;22.06;36.80
45040;BME280;30778;53.574;7.770;2023-07-13T07:12:25;101279.47;;;23.16;34.09
45040;BME280;30778;53.574;7.770;2023-07-13T07:14:51;101283.22;;;23.95;33.17
45040;BME280;30778;53.574;7.770;2023-07-13T07:17:16;101276.03;;;21.88;34.39
45040;BME280;30778;53.574;7.770;2023-07-13T07:19:42;101279.91;;;22.28;35.17
45040;BME280;30778;53.574;7.770;2023-07-13T07:22:08;101288.09;;;20.68;37.75
45040;BME280;30778;53.574;7.770;2023-07-13T07:24:33;101294.38;;;18.57;42.00
45040;BME280;30778;53.574;7.770;2023-07-13T07:26:59;101292.81;;;21.89;35.24
45040;BME280;30778;53.574;7.770;2023-07-13T07:29:25;101289.03;;;23.59;33.79
45040;BME280;30778;53.574;7.770;2023-07-13T07:31:52;101290.16;;;21.89;35.06
45040;BME280;30778;53.574;7.770;2023-07-13T07:34:17;101283.41;;;22.91;32.77
45040;BME280;30778;53.574;7.770;2023-07-13T07:36:43;101290.34;;;20.50;35.78
45040;BME280;30778;53.574;7.770;2023-07-13T07:39:08;101291.34;;;21.30;35.60
45040;BME280;30778;53.574;7.770;2023-07-13T07:41:34;101296.91;;;22.36;32.82
45040;BME280;30778;53.574;7.770;2023-07-13T07:44:00;101292.75;;;22.65;32.04
45040;BME280;30778;53.574;7.770;2023-07-13T07:46:25;101293.75;;;22.10;33.32
45040;BME280;30778;53.574;7.770;2023-07-13T07:48:51;101291.38;;;24.13;31.30
45040;BME280;30778;53.574;7.770;2023-07-13T07:51:16;101287.72;;;23.44;31.92
45040;BME280;30778;53.574;7.770;2023-07-13T07:53:42;101290.47;;;24.61;30.83
45040;BME280;30778;53.574;7.770;2023-07-13T07:56:08;101281.22;;;24.36;29.82
45040;BME280;30778;53.574;7.770;2023-07-13T07:58:35;101278.16;;;24.88;29.25
45040;BME280;30778;53.574;7.770;2023-07-13T08:01:07;101291.38;;;24.42;29.88
45040;BME280;30778;53.574;7.770;2023-07-13T08:03:33;101294.31;;;24.00;29.50
45040;BME280;30778;53.574;7.770;2023-07-13T08:05:59;101292.41;;;23.71;30.81
45040;BME280;30778;53.574;7.770;2023-07-13T08:08:25;101290.03;;;22.97;31.11
45040;BME280;30778;53.574;7.770;2023-07-13T08:10:52;101288.09;;;22.99;30.93
45040;BME280;30778;53.574;7.770;2023-07-13T08:13:17;101292.72;;;23.07;30.20
45040;BME280;30778;53.574;7.770;2023-07-13T08:15:43;101285.69;;;25.39;27.78
45040;BME280;30778;53.574;7.770;2023-07-13T08:18:08;101282.72;;;26.16;25.67
45040;BME280;30778;53.574;7.770;2023-07-13T08:20:40;101289.47;;;25.19;26.86
45040;BME280;30778;53.574;7.770;2023-07-13T08:23:07;101292.66;;;25.04;27.68
45040;BME280;30778;53.574;7.770;2023-07-13T08:25:34;101297.69;;;25.08;26.52
45040;BME280;30778;53.574;7.770;2023-07-13T08:28:00;101292.16;;;24.72;27.05
45040;BME280;30778;53.574;7.770;2023-07-13T08:30:26;101295.56;;;24.54;27.02
45040;BME280;30778;53.574;7.770;2023-07-13T08:32:52;101299.56;;;26.52;24.86
45040;BME280;30778;53.574;7.770;2023-07-13T08:35:18;101302.50;;;26.05;25.06
45040;BME280;30778;53.574;7.770;2023-07-13T08:37:44;101310.09;;;25.09;26.21
45040;BME280;30778;53.574;7.770;2023-07-13T08:40:11;101307.09;;;26.13;25.38
45040;BME280;30778;53.574;7.770;2023-07-13T08:42:39;101305.53;;;26.90;23.45
45040;BME280;30778;53.574;7.770;2023-07-13T08:48:30;101304.19;;;24.95;27.07
45040;BME280;30778;53.574;7.770;2023-07-13T08:53:46;101305.25;;;25.22;26.54
45040;BME280;30778;53.574;7.770;2023-07-13T08:56:22;101293.13;;;25.73;25.27
45040;BME280;30778;53.574;7.770;2023-07-13T08:58:51;101307.81;;;24.47;26.55
45040;BME280;30778;53.574;7.770;2023-07-13T09:01:51;101307.38;;;22.91;28.57
45040;BME280;30778;53.574;7.770;2023-07-13T09:05:10;101319.25;;;21.35;31.63
45040;BME280;30778;53.574;7.770;2023-07-13T09:15:21;101314.59;;;19.74;35.21
45040;BME280;30778;53.574;7.770;2023-07-13T09:17:49;101315.16;;;20.27;34.62
45040;BME280;30778;53.574;7.770;2023-07-13T09:20:34;101326.97;;;20.10;34.76
45040;BME280;30778;53.574;7.770;2023-07-13T09:23:04;101331.13;;;20.38;34.22
45040;BME280;30778;53.574;7.770;2023-07-13T09:28:15;101338.09;;;21.21;33.47
45040;BME280;30778;53.574;7.770;2023-07-13T09:31:01;101325.78;;;20.62;34.21
45040;BME280;30778;53.574;7.770;2023-07-13T09:33:28;101324.06;;;20.61;34.14
45040;BME280;30778;53.574;7.770;2023-07-13T09:35:59;101320.59;;;21.30;31.98
45040;BME280;30778;53.574;7.770;2023-07-13T09:38:27;101323.34;;;22.28;31.33
45040;BME280;30778;53.574;7.770;2023-07-13T09:41:21;101312.03;;;23.51;28.98
45040;BME280;30778;53.574;7.770;2023-07-13T09:44:13;101317.44;;;21.13;32.58
45040;BME280;30778;53.574;7.770;2023-07-13T09:46:52;101319.16;;;19.71;34.79
45040;BME280;30778;53.574;7.770;2023-07-13T09:49:22;101333.22;;;18.57;37.76
45040;BME280;30778;53.574;7.770;2023-07-13T09:51:58;101356.03;;;17.76;40.61
45040;BME280;30778;53.574;7.770;2023-07-13T09:54:25;101366.66;;;17.89;43.23
45040;BME280;30778;53.574;7.770;2023-07-13T09:57:13;101371.03;;;16.58;46.90
45040;BME280;30778;53.574;7.770;2023-07-13T09:59:47;101391.88;;;16.15;49.34
45040;BME280;30778;53.574;7.770;2023-07-13T10:02:33;101385.28;;;15.90;50.79
45040;BME280;30778;53.574;7.770;2023-07-13T10:05:02;101389.78;;;15.72;50.80
45040;BME280;30778;53.574;7.770;2023-07-13T10:07:30;101389.78;;;15.39;52.79
45040;BME280;30778;53.574;7.770;2023-07-13T10:10:01;101383.72;;;16.04;51.85
45040;BME280;30778;53.574;7.770;2023-07-13T10:12:28;101380.75;;;16.26;51.58
45040;BME280;30778;53.574;7.770;2023-07-13T10:14:56;101374.63;;;16.25;50.88
45040;BME280;30778;53.574;7.770;2023-07-13T10:17:27;101371.38;;;16.36;50.22
45040;BME280;30778;53.574;7.770;2023-07-13T10:20:02;101376.03;;;16.93;50.56
45040;BME280;30778;53.574;7.770;2023-07-13T10:22:37;101377.53;;;16.82;50.04
45040;BME280;30778;53.574;7.770;2023-07-13T10:25:19;101382.63;;;17.16;48.51
45040;BME280;30778;53.574;7.770;2023-07-13T10:27:45;101373.38;;;17.80;45.87
45040;BME280;30778;53.574;7.770;2023-07-13T10:30:24;101388.31;;;19.04;45.87
45040;BME280;30778;53.574;7.770;2023-07-13T10:33:02;101385.78;;;20.41;44.49
45040;BME280;30778;53.574;7.770;2023-07-13T10:35:30;101392.69;;;21.03;42.97
45040;BME280;30778;53.574;7.770;2023-07-13T10:38:12;101381.97;;;21.27;39.88
45040;BME280;30778;53.574;7.770;2023-07-13T10:40:41;101379.91;;;20.48;41.28
45040;BME280;30778;53.574;7.770;2023-07-13T10:43:18;101374.25;;;19.55;39.06
45040;BME280;30778;53.574;7.770;2023-07-13T10:45:46;101370.41;;;18.68;40.61
45040;BME280;30778;53.574;7.770;2023-07-13T10:48:15;101384.41;;;18.70;40.33
45040;BME280;30778;53.574;7.770;2023-07-13T10:50:44;101403.69;;;18.85;41.75
45040;BME280;30778;53.574;7.770;2023-07-13T10:53:27;101407.84;;;18.49;41.38
45040;BME280;30778;53.574;7.770;2023-07-13T11:01:11;101430.25;;;15.71;47.72
45040;BME280;30778;53.574;7.770;2023-07-13T11:12:00;101455.91;;;15.68;49.56
45040;BME280;30778;53.574;7.770;2023-07-13T11:14:37;101460.69;;;14.90;49.67
45040;BME280;30778;53.574;7.770;2023-07-13T11:22:50;101454.19;;;14.23;51.96
45040;BME280;30778;53.574;7.770;2023-07-13T11:25:32;101447.41;;;14.93;51.76
45040;BME280;30778;53.574;7.770;2023-07-13T11:28:06;101455.31;;;15.28;51.15
45040;BME280;30778;53.574;7.770;2023-07-13T11:30:37;101461.78;;;15.22;50.76
45040;BME280;30778;53.574;7.770;2023-07-13T11:38:37;101448.09;;;15.66;50.79
45040;BME280;30778;53.574;7.770;2023-07-13T11:43:44;101461.66;;;15.58;51.16
45040;BME280;30778;53.574;7.770;2023-07-13T11:46:21;101471.59;;;15.36;51.68
45040;BME280;30778;53.574;7.770;2023-07-13T11:48:47;101482.00;;;15.72;51.77
45040;BME280;30778;53.574;7.770;2023-07-13T11:51:21;101484.19;;;16.15;51.07
45040;BME280;30778;53.574;7.770;2023-07-13T11:53:50;101498.53;;;16.42;50.48
45040;BME280;30778;53.574;7.770;2023-07-13T11:56:17;101495.56;;;16.80;50.30
45040;BME280;30778;53.574;7.770;2023-07-13T11:58:43;101501.53;;;15.86;51.32
45040;BME280;30778;53.574;7.770;2023-07-13T12:01:21;101496.53;;;15.97;52.71
45040;BME280;30778;53.574;7.770;2023-07-13T12:03:48;101492.41;;;15.75;52.14
45040;BME280;30778;53.574;7.770;2023-07-13T12:08:47;101488.47;;;15.67;52.73
45040;BME280;30778;53.574;7.770;2023-07-13T12:11:17;101481.34;;;15.69;52.04
45040;BME280;30778;53.574;7.770;2023-07-13T12:13:44;101479.63;;;16.34;50.58
45040;BME280;30778;53.574;7.770;2023-07-13T12:16:31;101483.72;;;17.18;49.82
45040;BME280;30778;53.574;7.770;2023-07-13T12:18:59;101491.78;;;17.61;48.74
45040;BME280;30778;53.574;7.770;2023-07-13T12:21:34;101493.59;;;17.60;47.95
45040;BME280;30778;53.574;7.770;2023-07-13T12:24:00;101491.63;;;17.34;48.74
45040;BME280;30778;53.574;7.770;2023-07-13T12:26:29;101497.13;;;17.15;49.49
45040;BME280;30778;53.574;7.770;2023-07-13T12:28:58;101481.16;;;16.70;49.79
45040;BME280;30778;53.574;7.770;2023-07-13T12:34:06;101470.00;;;17.11;50.39
45040;BME280;30778;53.574;7.770;2023-07-13T12:36:37;101473.03;;;18.23;48.34
45040;BME280;30778;53.574;7.770;2023-07-13T12:39:14;101490.84;;;18.75;47.49
45040;BME280;30778;53.574;7.770;2023-07-13T12:41:40;101512.28;;;18.58;45.44
45040;BME280;30778;53.574;7.770;2023-07-13T12:44:15;101512.81;;;17.02;48.58
45040;BME280;30778;53.574;7.770;2023-07-13T12:46:52;101506.88;;;16.02;51.50
45040;BME280;30778;53.574;7.770;2023-07-13T12:49:23;101498.38;;;15.62;52.31
45040;BME280;30778;53.574;7.770;2023-07-13T12:51:57;101497.00;;;16.38;52.91
45040;BME280;30778;53.574;7.770;2023-07-13T12:54:24;101496.88;;;17.03;51.26
45040;BME280;30778;53.574;7.770;2023-07-13T12:56:51;101484.06;;;18.15;50.77
45040;BME280;30778;53.574;7.770;2023-07-13T12:59:21;101487.69;;;18.83;46.62
45040;BME280;30778;53.574;7.770;2023-07-13T13:01:48;101482.66;;;19.20;44.48
45040;BME280;30778;53.574;7.770;2023-07-13T13:04:15;101488.25;;;19.55;43.82
45040;BME280;30778;53.574;7.770;2023-07-13T13:06:41;101481.44;;;19.77;43.80
45040;BME280;30778;53.574;7.770;2023-07-13T13:09:16;101484.03;;;20.28;43.89
45040;BME280;30778;53.574;7.770;2023-07-13T13:11:43;101479.47;;;20.67;41.83
45040;BME280;30778;53.574;7.770;2023-07-13T13:14:09;101480.81;;;21.79;40.14
45040;BME280;30778;53.574;7.770;2023-07-13T13:16:38;101492.53;;;21.98;40.39
45040;BME280;30778;53.574;7.770;2023-07-13T13:21:44;101484.25;;;20.62;39.75
45040;BME280;30778;53.574;7.770;2023-07-13T13:24:17;101483.69;;;20.45;39.25
45040;BME280;30778;53.574;7.770;2023-07-13T13:26:43;101490.97;;;20.54;39.29
45040;BME280;30778;53.574;7.770;2023-07-13T13:29:19;101491.69;;;20.20;39.04
45040;BME280;30778;53.574;7.770;2023-07-13T13:31:45;101494.84;;;20.99;37.80
45040;BME280;30778;53.574;7.770;2023-07-13T13:34:13;101491.31;;;20.50;38.85
45040;BME280;30778;53.574;7.770;2023-07-13T13:36:41;101491.78;;;20.18;38.87
45040;BME280;30778;53.574;7.770;2023-07-13T13:41:44;101499.00;;;18.72;41.46
45040;BME280;30778;53.574;7.770;2023-07-13T13:44:10;101496.59;;;19.09;41.24
45040;BME280;30778;53.574;7.770;2023-07-13T13:46:36;101505.09;;;19.14;41.17
45040;BME280;30778;53.574;7.770;2023-07-13T13:49:02;101507.34;;;19.73;39.77
45040;BME280;30778;53.574;7.770;2023-07-13T13:51:28;101494.78;;;19.88;38.60
45040;BME280;30778;53.574;7.770;2023-07-13T13:53:54;101503.09;;;20.22;38.61
45040;BME280;30778;53.574;7.770;2023-07-13T13:56:20;101502.88;;;19.74;39.26